createdAt,value
2023-02-24T00:02:05.241Z,3.67
2023-02-24T00:04:35.088Z,3.08
2023-02-24T00:07:02.905Z,2.75
2023-02-24T00:09:31.096Z,3.40
2023-02-24T00:12:02.373Z,3.78
2023-02-24T00:14:32.285Z,3.97
2023-02-24T00:16:59.530Z,3.90
2023-02-24T00:19:32.529Z,4.22
2023-02-24T00:22:03.476Z,4.43
2023-02-24T00:24:31.273Z,3.80
2023-02-24T00:27:01.021Z,3.78
2023-02-24T00:29:29.391Z,3.83
2023-02-24T00:32:00.068Z,3.90
2023-02-24T00:34:29.294Z,3.70
2023-02-24T00:36:58.005Z,4.05
2023-02-24T00:39:30.767Z,4.05
2023-02-24T00:42:04.784Z,3.80
2023-02-24T00:44:36.921Z,3.35
2023-02-24T00:47:06.831Z,4.18
2023-02-24T00:49:35.906Z,3.53
2023-02-24T00:52:08.667Z,3.37
2023-02-24T00:57:22.662Z,3.92
2023-02-24T00:59:51.753Z,3.08
2023-02-24T01:02:19.011Z,3.33
2023-02-24T01:04:46.150Z,4.00
2023-02-24T01:07:14.091Z,4.28
2023-02-24T01:09:41.891Z,3.92
2023-02-24T01:12:29.768Z,4.60
2023-02-24T01:14:56.863Z,3.58
2023-02-24T01:17:23.816Z,4.80
2023-02-24T01:19:50.826Z,4.13
2023-02-24T01:22:36.442Z,3.80
2023-02-24T01:25:03.781Z,4.32
2023-02-24T01:27:31.503Z,4.18
2023-02-24T01:30:01.231Z,4.20
2023-02-24T01:32:32.001Z,4.10
2023-02-24T01:34:59.501Z,3.92
2023-02-24T01:37:26.403Z,3.60
2023-02-24T01:39:53.196Z,3.78
2023-02-24T01:45:13.562Z,4.30
2023-02-24T01:47:41.057Z,4.22
2023-02-24T01:50:10.132Z,3.92
2023-02-24T01:52:37.841Z,3.80
2023-02-24T01:55:14.533Z,3.90
2023-02-24T01:57:42.413Z,3.80
2023-02-24T02:00:11.866Z,3.97
2023-02-24T02:02:46.402Z,4.32
2023-02-24T02:05:14.732Z,4.35
2023-02-24T02:07:43.412Z,4.35
2023-02-24T02:10:12.150Z,4.93
2023-02-24T02:12:44.182Z,4.60
2023-02-24T02:15:14.414Z,4.85
2023-02-24T02:18:05.764Z,4.70
2023-02-24T02:20:56.966Z,4.70
2023-02-24T02:23:23.713Z,4.35
2023-02-24T02:26:40.530Z,4.55
2023-02-24T02:29:39.281Z,4.43
2023-02-24T02:32:39.812Z,4.55
2023-02-24T02:35:18.924Z,4.82
2023-02-24T02:38:25.885Z,4.82
2023-02-24T02:41:09.449Z,4.30
2023-02-24T02:43:48.922Z,4.28
2023-02-24T02:46:34.597Z,4.38
2023-02-24T02:49:15.199Z,4.28
2023-02-24T02:51:54.891Z,4.57
2023-02-24T02:54:29.147Z,3.92
2023-02-24T02:57:14.736Z,3.88
2023-02-24T02:59:51.950Z,3.78
2023-02-24T03:02:27.978Z,3.80
2023-02-24T03:05:01.939Z,3.70
2023-02-24T03:07:34.994Z,3.88
2023-02-24T03:10:10.760Z,3.50
2023-02-24T03:12:40.142Z,3.80
2023-02-24T03:15:10.626Z,3.55
2023-02-24T03:17:45.311Z,3.22
2023-02-24T03:20:28.841Z,3.60
2023-02-24T03:23:01.475Z,3.58
2023-02-24T03:25:48.327Z,3.45
2023-02-24T03:28:26.807Z,3.27
2023-02-24T03:31:13.083Z,3.00
2023-02-24T03:33:46.806Z,3.20
2023-02-24T03:36:15.069Z,3.70
2023-02-24T03:38:42.771Z,3.30
2023-02-24T03:41:11.837Z,3.40
2023-02-24T03:43:45.789Z,3.38
2023-02-24T03:46:15.232Z,3.25
2023-02-24T03:48:51.092Z,3.00
2023-02-24T03:51:20.344Z,2.90
2023-02-24T03:54:13.037Z,3.15
2023-02-24T03:57:05.681Z,2.90
2023-02-24T03:59:53.676Z,2.97
2023-02-24T04:02:25.209Z,2.90
2023-02-24T04:05:14.977Z,2.75
2023-02-24T04:08:05.342Z,2.70
2023-02-24T04:10:52.745Z,3.07
2023-02-24T04:13:43.268Z,2.55
2023-02-24T04:16:29.100Z,2.88
2023-02-24T04:19:03.881Z,2.65
2023-02-24T04:21:34.268Z,2.83
2023-02-24T04:24:08.508Z,2.50
2023-02-24T04:26:40.486Z,2.83
2023-02-24T04:29:17.525Z,2.72
2023-02-24T04:31:48.184Z,2.65
2023-02-24T04:34:19.966Z,2.13
2023-02-24T04:36:50.541Z,2.47
2023-02-24T04:39:20.536Z,2.25
2023-02-24T04:41:52.215Z,2.30
2023-02-24T04:44:21.246Z,3.25
2023-02-24T04:46:49.994Z,2.38
2023-02-24T04:49:18.325Z,2.22
2023-02-24T04:51:45.743Z,2.63
2023-02-24T04:54:17.433Z,2.30
2023-02-24T04:56:50.603Z,2.30
2023-02-24T04:59:19.161Z,2.92
2023-02-24T05:01:46.611Z,2.90
2023-02-24T05:04:14.502Z,2.63
2023-02-24T05:06:44.033Z,2.83
2023-02-24T05:09:14.655Z,2.40
2023-02-24T05:11:43.443Z,2.60
2023-02-24T05:14:14.969Z,2.75
2023-02-24T05:16:43.348Z,2.67
2023-02-24T05:19:30.731Z,3.10
2023-02-24T05:22:00.203Z,2.50
2023-02-24T05:24:29.411Z,2.30
2023-02-24T05:27:00.154Z,2.40
2023-02-24T05:29:34.268Z,2.63
2023-02-24T05:32:02.353Z,2.40
2023-02-24T05:34:30.775Z,3.05
2023-02-24T05:36:59.783Z,2.47
2023-02-24T05:39:27.252Z,2.40
2023-02-24T05:41:57.296Z,3.00
2023-02-24T05:44:26.550Z,2.00
2023-02-24T05:46:59.488Z,2.53
2023-02-24T05:49:33.756Z,2.30
2023-02-24T05:52:07.474Z,2.10
2023-02-24T05:54:38.430Z,2.40
2023-02-24T05:57:09.191Z,2.17
2023-02-24T05:59:36.040Z,2.40
2023-02-24T06:02:07.438Z,2.20
2023-02-24T06:04:45.752Z,2.35
2023-02-24T06:07:22.684Z,2.55
2023-02-24T06:09:53.708Z,2.40
2023-02-24T06:12:23.192Z,2.42
2023-02-24T06:14:50.579Z,2.30
2023-02-24T06:17:18.637Z,2.30
2023-02-24T06:19:47.209Z,2.78
2023-02-24T06:22:16.105Z,2.20
2023-02-24T06:24:44.394Z,2.23
2023-02-24T06:27:17.664Z,1.70
2023-02-24T06:29:52.577Z,2.05
2023-02-24T06:32:21.964Z,2.00
2023-02-24T06:34:48.884Z,2.35
2023-02-24T06:37:16.563Z,1.90
2023-02-24T06:39:43.473Z,1.75
2023-02-24T06:42:12.364Z,1.88
2023-02-24T06:44:40.764Z,1.50
2023-02-24T06:47:10.468Z,2.17
2023-02-24T06:49:37.590Z,1.75
2023-02-24T06:52:04.706Z,1.70
2023-02-24T06:54:35.768Z,1.57
2023-02-24T06:57:06.374Z,2.00
2023-02-24T06:59:34.307Z,1.40
2023-02-24T07:02:04.474Z,1.60
2023-02-24T07:04:41.885Z,1.65
2023-02-24T07:07:08.814Z,1.60
2023-02-24T07:09:35.637Z,1.73
2023-02-24T07:12:04.517Z,2.10
2023-02-24T07:14:31.708Z,1.65
2023-02-24T07:16:59.562Z,1.50
2023-02-24T07:19:29.186Z,1.77
2023-02-24T07:22:02.123Z,1.70
2023-02-24T07:24:37.145Z,1.80
2023-02-24T07:27:22.098Z,1.52
2023-02-24T07:29:52.684Z,1.60
2023-02-24T07:32:25.511Z,1.63
2023-02-24T07:34:52.912Z,1.50
2023-02-24T07:37:20.727Z,1.63
2023-02-24T07:39:47.602Z,1.70
2023-02-24T07:42:14.606Z,1.77
2023-02-24T07:44:46.648Z,2.43
2023-02-24T07:47:15.812Z,2.15
2023-02-24T07:49:42.934Z,1.75
2023-02-24T07:52:11.481Z,2.25
2023-02-24T07:54:39.278Z,2.00
2023-02-24T07:57:06.711Z,1.80
2023-02-24T07:59:37.584Z,2.00
2023-02-24T08:02:07.622Z,1.88
2023-02-24T08:04:36.264Z,1.55
2023-02-24T08:07:04.265Z,2.45
2023-02-24T08:09:45.813Z,1.60
2023-02-24T08:12:17.938Z,1.90
2023-02-24T08:14:50.920Z,2.35
2023-02-24T08:17:26.512Z,2.00
2023-02-24T08:20:13.006Z,2.10
2023-02-24T08:22:44.126Z,2.28
2023-02-24T08:25:18.309Z,2.63
2023-02-24T08:28:06.058Z,2.00
2023-02-24T08:30:38.863Z,1.95
2023-02-24T08:33:09.130Z,2.28
2023-02-24T08:35:38.768Z,2.25
2023-02-24T08:38:14.360Z,2.03
2023-02-24T08:40:51.322Z,1.90
2023-02-24T08:43:30.817Z,2.10
2023-02-24T08:46:18.404Z,2.30
2023-02-24T08:48:55.507Z,2.20
2023-02-24T08:51:28.880Z,2.17
2023-02-24T08:54:06.154Z,2.28
2023-02-24T08:56:34.939Z,2.00
2023-02-24T08:59:07.643Z,2.30
2023-02-24T09:01:40.127Z,2.45
2023-02-24T09:04:10.541Z,2.28
2023-02-24T09:06:44.543Z,2.60
2023-02-24T09:09:17.759Z,2.42
2023-02-24T09:11:55.820Z,2.42
2023-02-24T09:14:38.440Z,2.60
2023-02-24T09:17:11.136Z,2.58
2023-02-24T09:19:47.332Z,2.60
2023-02-24T09:22:31.919Z,3.05
2023-02-24T09:25:28.974Z,2.90
2023-02-24T09:28:18.532Z,2.45
2023-02-24T09:30:53.386Z,2.40
2023-02-24T09:33:25.003Z,2.30
2023-02-24T09:35:53.712Z,2.70
2023-02-24T09:38:42.501Z,2.65
2023-02-24T09:41:33.033Z,2.90
2023-02-24T09:44:18.192Z,2.85
2023-02-24T09:46:54.865Z,2.78
2023-02-24T09:49:39.834Z,3.17
2023-02-24T09:52:17.514Z,2.97
2023-02-24T09:55:10.771Z,2.83
2023-02-24T09:58:09.240Z,3.22
2023-02-24T10:00:44.084Z,3.00
2023-02-24T10:03:41.486Z,3.60
2023-02-24T10:06:20.588Z,2.92
2023-02-24T10:09:11.514Z,3.30
2023-02-24T10:12:03.989Z,3.87
2023-02-24T10:14:52.949Z,3.08
2023-02-24T10:17:22.881Z,3.60
2023-02-24T10:19:59.880Z,3.88
2023-02-24T10:22:50.761Z,4.25
2023-02-24T10:25:26.671Z,4.35
2023-02-24T10:27:57.815Z,4.13
2023-02-24T10:31:04.081Z,4.63
2023-02-24T10:33:45.053Z,4.05
2023-02-24T10:36:18.701Z,3.85
2023-02-24T10:38:46.542Z,4.07
2023-02-24T10:41:15.172Z,4.18
2023-02-24T10:43:54.058Z,4.35
2023-02-24T10:46:41.391Z,4.13
2023-02-24T10:49:16.211Z,4.93
2023-02-24T10:51:51.187Z,4.72
2023-02-24T10:54:33.739Z,5.18
2023-02-24T10:57:18.275Z,4.88
2023-02-24T11:00:05.579Z,5.05
2023-02-24T11:02:57.891Z,4.93
2023-02-24T11:05:38.037Z,5.70
2023-02-24T11:08:26.407Z,5.40
2023-02-24T11:10:58.710Z,5.38
2023-02-24T11:13:45.079Z,5.23
2023-02-24T11:16:30.602Z,5.60
2023-02-24T11:18:57.909Z,5.57
2023-02-24T11:21:27.169Z,6.00
2023-02-24T11:23:59.614Z,6.13
2023-02-24T11:26:36.344Z,5.80
2023-02-24T11:29:27.484Z,5.72
2023-02-24T11:32:00.713Z,6.03
2023-02-24T11:34:53.552Z,6.47
2023-02-24T11:37:43.177Z,6.75
2023-02-24T11:40:24.181Z,6.68
2023-02-24T11:43:03.205Z,6.33
2023-02-24T11:45:29.959Z,6.43
2023-02-24T11:48:05.576Z,6.70
2023-02-24T11:51:02.811Z,7.03
2023-02-24T11:53:35.366Z,6.33
2023-02-24T11:56:24.866Z,6.60
2023-02-24T11:59:00.817Z,6.53
2023-02-24T12:01:40.992Z,6.45
2023-02-24T12:04:29.073Z,6.07
2023-02-24T12:07:06.645Z,6.85
2023-02-24T12:09:41.286Z,6.75
2023-02-24T12:12:22.303Z,7.32
2023-02-24T12:14:58.154Z,7.30
2023-02-24T12:17:41.769Z,7.63
2023-02-24T12:20:42.020Z,8.20
2023-02-24T12:23:23.227Z,7.90
2023-02-24T12:26:21.758Z,8.38
2023-02-24T12:29:00.661Z,8.15
2023-02-24T12:32:00.620Z,7.70
2023-02-24T12:34:59.901Z,7.57
2023-02-24T12:37:54.798Z,7.68
2023-02-24T12:40:39.673Z,6.80
2023-02-24T12:43:35.898Z,7.25
2023-02-24T12:46:13.139Z,6.85
2023-02-24T12:49:12.857Z,6.40
2023-02-24T12:52:09.453Z,6.38
2023-02-24T12:54:47.844Z,6.20
2023-02-24T12:57:55.846Z,5.93
2023-02-24T13:00:43.849Z,4.45
2023-02-24T13:04:01.461Z,3.88
2023-02-24T13:06:53.121Z,3.55
2023-02-24T13:09:29.354Z,3.88
2023-02-24T13:12:06.560Z,3.35
2023-02-24T13:14:37.008Z,3.13
2023-02-24T13:17:12.673Z,2.80
2023-02-24T13:19:41.491Z,3.30
2023-02-24T13:22:20.325Z,3.33
2023-02-24T13:25:08.809Z,3.65
2023-02-24T13:27:39.008Z,3.28
2023-02-24T13:30:11.940Z,3.40
2023-02-24T13:32:46.065Z,3.22
2023-02-24T13:35:15.958Z,3.28
2023-02-24T13:37:45.337Z,3.10
2023-02-24T13:40:18.029Z,3.47
2023-02-24T13:42:59.854Z,3.47
2023-02-24T13:45:41.921Z,2.95
2023-02-24T13:48:19.091Z,2.73
2023-02-24T13:51:09.244Z,2.92
2023-02-24T13:54:03.695Z,2.55
2023-02-24T13:56:49.210Z,2.70
2023-02-24T13:59:35.716Z,2.97
2023-02-24T14:02:14.403Z,3.10
2023-02-24T14:04:56.628Z,2.70
2023-02-24T14:07:37.242Z,2.72
2023-02-24T14:10:19.158Z,3.08
2023-02-24T14:12:47.430Z,2.40
2023-02-24T14:15:20.633Z,1.85
2023-02-24T14:17:59.771Z,2.03
2023-02-24T14:20:28.110Z,1.63
2023-02-24T14:22:58.792Z,1.80
2023-02-24T14:25:29.633Z,1.40
2023-02-24T14:27:57.450Z,1.27
2023-02-24T14:30:33.961Z,1.35
2023-02-24T14:33:02.701Z,1.70
2023-02-24T14:35:50.377Z,1.83
2023-02-24T14:38:27.898Z,1.63
2023-02-24T14:40:54.632Z,1.77
2023-02-24T14:43:23.863Z,2.08
2023-02-24T14:45:52.158Z,2.00
2023-02-24T14:48:32.590Z,1.92
2023-02-24T14:51:04.531Z,1.70
2023-02-24T14:53:36.072Z,1.77
2023-02-24T14:56:06.110Z,2.25
2023-02-24T14:58:45.004Z,1.90
2023-02-24T15:01:33.342Z,2.03
2023-02-24T15:04:10.701Z,2.55
2023-02-24T15:06:40.959Z,2.28
2023-02-24T15:09:16.091Z,2.22
2023-02-24T15:11:43.084Z,2.00
2023-02-24T15:14:23.332Z,2.30
2023-02-24T15:16:54.660Z,2.70
2023-02-24T15:19:32.426Z,1.90
2023-02-24T15:21:59.558Z,1.42
2023-02-24T15:24:31.032Z,1.40
2023-02-24T15:27:03.702Z,1.52
2023-02-24T15:29:31.538Z,1.30
2023-02-24T15:32:00.310Z,1.40
2023-02-24T15:34:34.807Z,1.60
2023-02-24T15:37:23.314Z,1.27
2023-02-24T15:39:56.272Z,1.60
2023-02-24T15:42:33.862Z,1.40
2023-02-24T15:45:39.849Z,1.58
2023-02-24T15:48:21.922Z,1.30
2023-02-24T15:50:50.379Z,1.50
2023-02-24T15:53:17.369Z,1.00
2023-02-24T15:55:44.731Z,1.30
2023-02-24T15:58:16.675Z,1.40
2023-02-24T16:00:43.633Z,1.27
2023-02-24T16:03:10.406Z,0.90
2023-02-24T16:05:37.777Z,1.27
2023-02-24T16:08:04.998Z,1.20
2023-02-24T16:10:31.875Z,1.83
2023-02-24T16:13:00.880Z,0.95
2023-02-24T16:15:33.130Z,1.23
2023-02-24T16:18:02.361Z,0.60
2023-02-24T16:20:34.111Z,0.57
2023-02-24T16:23:03.374Z,0.80
2023-02-24T16:25:36.422Z,0.45
2023-02-24T16:28:03.228Z,0.30
2023-02-24T16:30:30.324Z,0.30
2023-02-24T16:32:58.927Z,0.40
2023-02-24T16:35:26.798Z,0.38
2023-02-24T16:37:54.030Z,0.40
2023-02-24T16:40:29.981Z,0.55
2023-02-24T16:42:56.929Z,0.60
2023-02-24T16:45:28.793Z,0.80
2023-02-24T16:47:58.322Z,0.65
2023-02-24T16:50:52.198Z,0.88
2023-02-24T16:53:22.631Z,1.10
2023-02-24T16:55:50.194Z,0.90
2023-02-24T16:58:17.931Z,1.00
2023-02-24T17:00:47.632Z,1.00
2023-02-24T17:03:24.104Z,1.13
2023-02-24T17:05:51.600Z,1.60
2023-02-24T17:08:19.017Z,1.00
2023-02-24T17:10:46.773Z,1.30
2023-02-24T17:13:17.100Z,1.40
2023-02-24T17:15:44.160Z,1.30
2023-02-24T17:18:11.061Z,1.77
2023-02-24T17:20:40.409Z,1.80
2023-02-24T17:23:07.309Z,2.17
2023-02-24T17:25:34.207Z,2.50
2023-02-24T17:28:01.250Z,2.78
2023-02-24T17:30:31.787Z,2.13
2023-02-24T17:32:58.690Z,2.20
2023-02-24T17:35:26.950Z,2.40
2023-02-24T17:37:53.973Z,2.28
2023-02-24T17:40:21.404Z,2.08
2023-02-24T17:42:48.246Z,2.95
2023-02-24T17:45:15.487Z,2.60
2023-02-24T17:47:42.714Z,1.88
2023-02-24T17:50:11.499Z,2.60
2023-02-24T17:52:38.370Z,2.53
2023-02-24T17:55:06.207Z,2.40
2023-02-24T17:57:36.602Z,2.30
2023-02-24T18:00:04.879Z,2.58
2023-02-24T18:02:39.265Z,2.53
2023-02-24T18:05:06.378Z,2.60
2023-02-24T18:07:33.346Z,1.98
2023-02-24T18:10:00.197Z,2.25
2023-02-24T18:12:27.880Z,2.25
2023-02-24T18:15:07.448Z,2.50
2023-02-24T18:17:36.175Z,2.17
2023-02-24T18:20:03.446Z,2.05
2023-02-24T18:22:30.181Z,2.35
2023-02-24T18:24:57.028Z,2.28
2023-02-24T18:27:23.822Z,2.35
2023-02-24T18:29:50.672Z,2.17
2023-02-24T18:32:17.754Z,2.25
2023-02-24T18:34:44.685Z,2.40
2023-02-24T18:37:11.547Z,2.45
2023-02-24T18:39:38.287Z,2.60
2023-02-24T18:42:05.183Z,1.98
2023-02-24T18:44:31.978Z,2.65
2023-02-24T18:46:58.792Z,2.55
2023-02-24T18:49:25.696Z,2.95
2023-02-24T18:51:52.491Z,2.50
2023-02-24T18:54:20.186Z,3.17
2023-02-24T18:56:47.020Z,2.15
2023-02-24T18:59:13.858Z,2.72
2023-02-24T19:01:40.755Z,2.45
2023-02-24T19:04:08.967Z,2.60
2023-02-24T19:06:36.835Z,2.97
2023-02-24T19:09:11.300Z,2.80
2023-02-24T19:11:39.924Z,2.83
2023-02-24T19:14:07.326Z,5.40
2023-02-24T19:16:35.068Z,4.25
2023-02-24T19:19:01.926Z,4.78
2023-02-24T19:21:31.136Z,5.25
2023-02-24T19:24:10.996Z,14.45
2023-02-24T19:26:38.568Z,11.20
2023-02-24T19:29:06.226Z,6.78
2023-02-24T19:31:33.674Z,4.83
2023-02-24T19:34:12.093Z,8.63
2023-02-24T19:36:39.706Z,10.77
2023-02-24T19:39:10.318Z,4.70
2023-02-24T19:41:38.265Z,3.50
2023-02-24T19:44:05.140Z,4.50
2023-02-24T19:46:34.046Z,3.70
2023-02-24T19:49:01.058Z,5.18
2023-02-24T19:51:28.055Z,4.45
2023-02-24T19:53:56.988Z,4.47
2023-02-24T19:56:24.996Z,12.88
2023-02-24T19:58:56.758Z,5.00
2023-02-24T20:01:24.413Z,4.85
2023-02-24T20:03:55.284Z,4.60
2023-02-24T20:06:31.830Z,3.50
2023-02-24T20:08:59.217Z,4.77
2023-02-24T20:11:28.643Z,3.55
2023-02-24T20:13:55.569Z,4.13
2023-02-24T20:16:26.918Z,3.58
2023-02-24T20:18:56.918Z,4.32
2023-02-24T20:21:24.012Z,4.13
2023-02-24T20:23:51.250Z,4.78
2023-02-24T20:26:18.638Z,3.08
2023-02-24T20:28:46.870Z,3.20
2023-02-24T20:31:18.479Z,3.43
2023-02-24T20:33:46.902Z,4.63
2023-02-24T20:36:16.794Z,3.47
2023-02-24T20:38:43.798Z,3.08
2023-02-24T20:41:10.932Z,2.40
2023-02-24T20:43:38.350Z,3.25
2023-02-24T20:46:24.065Z,2.92
2023-02-24T20:48:52.658Z,4.50
2023-02-24T20:51:19.604Z,2.50
2023-02-24T20:53:56.798Z,2.72
2023-02-24T20:56:29.076Z,2.20
2023-02-24T20:59:03.495Z,4.30
2023-02-24T21:01:31.365Z,3.88
2023-02-24T21:03:58.344Z,4.05
2023-02-24T21:06:28.318Z,3.20
2023-02-24T21:08:55.837Z,3.77
2023-02-24T21:11:23.336Z,4.15
2023-02-24T21:13:51.348Z,3.13
2023-02-24T21:16:21.005Z,3.65
2023-02-24T21:18:49.603Z,2.30
2023-02-24T21:21:17.503Z,2.88
2023-02-24T21:23:44.654Z,1.70
2023-02-24T21:26:12.611Z,1.55
2023-02-24T21:28:40.597Z,1.80
2023-02-24T21:31:18.184Z,5.68
2023-02-24T21:33:49.274Z,4.50
2023-02-24T21:36:16.658Z,2.17
2023-02-24T21:38:45.590Z,1.60
2023-02-24T21:41:19.297Z,1.95
2023-02-24T21:43:46.558Z,1.63
2023-02-24T21:46:15.649Z,1.55
2023-02-24T21:48:43.090Z,1.67
2023-02-24T21:51:12.653Z,1.60
2023-02-24T21:53:43.488Z,1.42
2023-02-24T21:56:17.765Z,1.52
2023-02-24T21:58:54.052Z,2.28
2023-02-24T22:01:33.252Z,2.25
2023-02-24T22:04:02.848Z,2.65
2023-02-24T22:06:32.042Z,1.52
2023-02-24T22:09:00.404Z,1.90
2023-02-24T22:11:27.395Z,1.70
2023-02-24T22:13:54.247Z,1.63
2023-02-24T22:16:24.818Z,1.83
2023-02-24T22:18:53.564Z,1.70
2023-02-24T22:21:23.748Z,2.30
2023-02-24T22:23:53.165Z,1.88
2023-02-24T22:26:23.664Z,1.80
2023-02-24T22:28:51.294Z,2.15
2023-02-24T22:31:21.614Z,1.90
2023-02-24T22:33:49.006Z,2.15
2023-02-24T22:36:27.824Z,2.35
2023-02-24T22:38:56.473Z,1.85
2023-02-24T22:41:31.049Z,2.10
2023-02-24T22:43:58.603Z,1.70
2023-02-24T22:46:34.529Z,2.50
2023-02-24T22:49:01.852Z,1.92
2023-02-24T22:51:29.210Z,2.20
2023-02-24T22:53:56.543Z,2.45
2023-02-24T22:56:28.659Z,2.20
2023-02-24T22:58:56.513Z,2.50
2023-02-24T23:01:26.264Z,2.20
2023-02-24T23:03:53.287Z,2.35
2023-02-24T23:06:23.314Z,2.25
2023-02-24T23:08:51.743Z,2.45
2023-02-24T23:11:27.676Z,2.65
2023-02-24T23:13:55.898Z,2.00
2023-02-24T23:16:29.526Z,2.08
2023-02-24T23:19:04.219Z,2.70
2023-02-24T23:21:40.743Z,2.33
2023-02-24T23:24:10.920Z,2.13
2023-02-24T23:26:41.850Z,1.98
2023-02-24T23:29:10.504Z,2.78
2023-02-24T23:31:37.530Z,1.90
2023-02-24T23:34:07.037Z,1.90
2023-02-24T23:36:35.985Z,2.63
2023-02-24T23:39:04.271Z,2.33
2023-02-24T23:41:31.180Z,2.65
2023-02-24T23:43:58.573Z,1.90
2023-02-24T23:46:25.678Z,2.35
2023-02-24T23:48:53.737Z,2.30
2023-02-24T23:51:21.191Z,2.20
2023-02-24T23:53:48.419Z,2.30
2023-02-24T23:56:25.757Z,2.00
2023-02-24T23:58:55.038Z,2.10
